sensor_id;sensor_type;location;lat;lon;timestamp;P1;durP1;ratioP1;P2;durP2;ratioP2
59599;SDS011;61855;55.030;73.326;2022-07-23T00:01:28;6.10;;;2.53;;
59599;SDS011;61855;55.030;73.326;2022-07-23T00:03:55;4.05;;;2.67;;
59599;SDS011;61855;55.030;73.326;2022-07-23T00:06:22;5.05;;;2.50;;
59599;SDS011;61855;55.030;73.326;2022-07-23T00:08:49;6.30;;;2.85;;
59599;SDS011;61855;55.030;73.326;2022-07-23T00:11:15;6.45;;;2.72;;
59599;SDS011;61855;55.030;73.326;2022-07-23T00:13:43;6.15;;;3.05;;
59599;SDS011;61855;55.030;73.326;2022-07-23T00:16:10;6.65;;;2.60;;
59599;SDS011;61855;55.030;73.326;2022-07-23T00:18:36;5.55;;;3.13;;
59599;SDS011;61855;55.030;73.326;2022-07-23T00:21:02;4.13;;;2.85;;
59599;SDS011;61855;55.030;73.326;2022-07-23T00:23:28;6.65;;;2.60;;
59599;SDS011;61855;55.030;73.326;2022-07-23T00:25:55;6.28;;;2.83;;
59599;SDS011;61855;55.030;73.326;2022-07-23T00:28:26;4.38;;;2.85;;
59599;SDS011;61855;55.030;73.326;2022-07-23T00:30:53;6.80;;;3.10;;
59599;SDS011;61855;55.030;73.326;2022-07-23T00:33:20;6.47;;;2.70;;
59599;SDS011;61855;55.030;73.326;2022-07-23T00:35:46;4.60;;;2.92;;
59599;SDS011;61855;55.030;73.326;2022-07-23T00:38:13;5.88;;;3.20;;
59599;SDS011;61855;55.030;73.326;2022-07-23T00:40:39;5.00;;;3.05;;
59599;SDS011;61855;55.030;73.326;2022-07-23T00:43:05;5.68;;;3.20;;
59599;SDS011;61855;55.030;73.326;2022-07-23T00:45:32;5.03;;;3.20;;
59599;SDS011;61855;55.030;73.326;2022-07-23T00:47:59;9.57;;;3.40;;
59599;SDS011;61855;55.030;73.326;2022-07-23T00:50:30;9.05;;;3.40;;
59599;SDS011;61855;55.030;73.326;2022-07-23T00:52:58;6.05;;;3.25;;
59599;SDS011;61855;55.030;73.326;2022-07-23T00:55:24;6.35;;;3.30;;
59599;SDS011;61855;55.030;73.326;2022-07-23T00:57:50;10.98;;;3.45;;
59599;SDS011;61855;55.030;73.326;2022-07-23T01:00:18;4.72;;;3.00;;
59599;SDS011;61855;55.030;73.326;2022-07-23T01:02:44;6.18;;;3.17;;
59599;SDS011;61855;55.030;73.326;2022-07-23T01:05:15;6.10;;;3.40;;
59599;SDS011;61855;55.030;73.326;2022-07-23T01:07:46;4.97;;;3.20;;
59599;SDS011;61855;55.030;73.326;2022-07-23T01:10:17;6.05;;;3.70;;
59599;SDS011;61855;55.030;73.326;2022-07-23T01:13:07;6.45;;;3.95;;
59599;SDS011;61855;55.030;73.326;2022-07-23T01:15:38;8.07;;;3.70;;
59599;SDS011;61855;55.030;73.326;2022-07-23T01:18:05;6.88;;;3.67;;
59599;SDS011;61855;55.030;73.326;2022-07-23T01:20:33;8.77;;;3.47;;
59599;SDS011;61855;55.030;73.326;2022-07-23T01:23:01;10.32;;;3.83;;
59599;SDS011;61855;55.030;73.326;2022-07-23T01:25:28;7.63;;;4.57;;
59599;SDS011;61855;55.030;73.326;2022-07-23T01:28:02;9.50;;;4.10;;
59599;SDS011;61855;55.030;73.326;2022-07-23T01:30:29;7.70;;;3.90;;
59599;SDS011;61855;55.030;73.326;2022-07-23T01:32:56;9.48;;;4.32;;
59599;SDS011;61855;55.030;73.326;2022-07-23T01:35:23;7.15;;;3.88;;
59599;SDS011;61855;55.030;73.326;2022-07-23T01:37:57;6.85;;;3.88;;
59599;SDS011;61855;55.030;73.326;2022-07-23T01:40:23;6.88;;;4.68;;
59599;SDS011;61855;55.030;73.326;2022-07-23T01:43:00;11.05;;;5.80;;
59599;SDS011;61855;55.030;73.326;2022-07-23T01:45:29;9.43;;;5.20;;
59599;SDS011;61855;55.030;73.326;2022-07-23T01:47:55;9.98;;;5.05;;
59599;SDS011;61855;55.030;73.326;2022-07-23T01:50:24;9.15;;;4.95;;
59599;SDS011;61855;55.030;73.326;2022-07-23T01:53:06;14.85;;;10.65;;
59599;SDS011;61855;55.030;73.326;2022-07-23T01:55:35;22.90;;;13.13;;
59599;SDS011;61855;55.030;73.326;2022-07-23T01:58:02;26.55;;;15.23;;
59599;SDS011;61855;55.030;73.326;2022-07-23T02:00:34;22.77;;;15.95;;
59599;SDS011;61855;55.030;73.326;2022-07-23T02:03:01;20.75;;;13.43;;
59599;SDS011;61855;55.030;73.326;2022-07-23T02:05:27;15.00;;;9.00;;
59599;SDS011;61855;55.030;73.326;2022-07-23T02:07:54;12.25;;;7.53;;
59599;SDS011;61855;55.030;73.326;2022-07-23T02:10:21;11.02;;;7.65;;
59599;SDS011;61855;55.030;73.326;2022-07-23T02:12:47;11.80;;;6.63;;
59599;SDS011;61855;55.030;73.326;2022-07-23T02:15:14;10.02;;;6.60;;
59599;SDS011;61855;55.030;73.326;2022-07-23T02:17:40;10.27;;;5.88;;
59599;SDS011;61855;55.030;73.326;2022-07-23T02:20:07;8.75;;;5.22;;
59599;SDS011;61855;55.030;73.326;2022-07-23T02:22:35;8.82;;;5.80;;
59599;SDS011;61855;55.030;73.326;2022-07-23T02:25:02;7.82;;;4.82;;
59599;SDS011;61855;55.030;73.326;2022-07-23T02:27:29;6.53;;;4.53;;
59599;SDS011;61855;55.030;73.326;2022-07-23T02:29:56;8.13;;;4.57;;
59599;SDS011;61855;55.030;73.326;2022-07-23T02:32:24;6.57;;;4.47;;
59599;SDS011;61855;55.030;73.326;2022-07-23T02:34:50;6.40;;;4.00;;
59599;SDS011;61855;55.030;73.326;2022-07-23T02:37:17;7.72;;;3.78;;
59599;SDS011;61855;55.030;73.326;2022-07-23T02:39:43;10.32;;;3.92;;
59599;SDS011;61855;55.030;73.326;2022-07-23T02:42:11;9.20;;;3.97;;
59599;SDS011;61855;55.030;73.326;2022-07-23T02:44:37;12.27;;;6.30;;
59599;SDS011;61855;55.030;73.326;2022-07-23T02:47:03;12.32;;;6.50;;
59599;SDS011;61855;55.030;73.326;2022-07-23T02:49:32;10.98;;;6.75;;
59599;SDS011;61855;55.030;73.326;2022-07-23T02:52:02;12.18;;;6.80;;
59599;SDS011;61855;55.030;73.326;2022-07-23T02:54:32;14.85;;;6.10;;
59599;SDS011;61855;55.030;73.326;2022-07-23T02:56:58;13.15;;;6.00;;
59599;SDS011;61855;55.030;73.326;2022-07-23T02:59:25;12.55;;;5.70;;
59599;SDS011;61855;55.030;73.326;2022-07-23T03:01:59;12.35;;;6.00;;
59599;SDS011;61855;55.030;73.326;2022-07-23T03:04:26;15.88;;;5.72;;
59599;SDS011;61855;55.030;73.326;2022-07-23T03:06:52;9.98;;;6.05;;
59599;SDS011;61855;55.030;73.326;2022-07-23T03:09:19;13.20;;;6.03;;
59599;SDS011;61855;55.030;73.326;2022-07-23T03:11:45;9.70;;;5.10;;
59599;SDS011;61855;55.030;73.326;2022-07-23T03:14:12;8.65;;;4.15;;
59599;SDS011;61855;55.030;73.326;2022-07-23T03:16:39;7.32;;;4.18;;
59599;SDS011;61855;55.030;73.326;2022-07-23T03:19:05;8.68;;;4.22;;
59599;SDS011;61855;55.030;73.326;2022-07-23T03:21:31;8.45;;;4.35;;
59599;SDS011;61855;55.030;73.326;2022-07-23T03:24:02;11.60;;;4.13;;
59599;SDS011;61855;55.030;73.326;2022-07-23T03:26:29;9.07;;;3.85;;
59599;SDS011;61855;55.030;73.326;2022-07-23T03:28:55;10.18;;;3.95;;
59599;SDS011;61855;55.030;73.326;2022-07-23T03:31:21;4.88;;;4.13;;
59599;SDS011;61855;55.030;73.326;2022-07-23T03:33:49;10.50;;;4.00;;
59599;SDS011;61855;55.030;73.326;2022-07-23T03:36:21;11.05;;;4.07;;
59599;SDS011;61855;55.030;73.326;2022-07-23T03:38:52;8.02;;;3.67;;
59599;SDS011;61855;55.030;73.326;2022-07-23T03:41:28;7.30;;;3.70;;
59599;SDS011;61855;55.030;73.326;2022-07-23T03:43:54;6.63;;;4.07;;
59599;SDS011;61855;55.030;73.326;2022-07-23T03:46:20;9.70;;;3.90;;
59599;SDS011;61855;55.030;73.326;2022-07-23T03:48:46;8.10;;;3.90;;
59599;SDS011;61855;55.030;73.326;2022-07-23T03:51:18;7.22;;;3.58;;
59599;SDS011;61855;55.030;73.326;2022-07-23T03:53:44;8.57;;;4.05;;
59599;SDS011;61855;55.030;73.326;2022-07-23T03:56:10;8.15;;;4.00;;
59599;SDS011;61855;55.030;73.326;2022-07-23T03:58:39;5.78;;;3.45;;
59599;SDS011;61855;55.030;73.326;2022-07-23T04:01:05;6.43;;;3.95;;
59599;SDS011;61855;55.030;73.326;2022-07-23T04:03:32;7.45;;;3.33;;
59599;SDS011;61855;55.030;73.326;2022-07-23T04:06:03;6.93;;;3.75;;
59599;SDS011;61855;55.030;73.326;2022-07-23T04:08:34;6.65;;;4.20;;
59599;SDS011;61855;55.030;73.326;2022-07-23T04:11:02;6.20;;;3.85;;
59599;SDS011;61855;55.030;73.326;2022-07-23T04:13:35;7.25;;;3.58;;
59599;SDS011;61855;55.030;73.326;2022-07-23T04:16:03;6.72;;;3.60;;
59599;SDS011;61855;55.030;73.326;2022-07-23T04:18:29;5.82;;;3.10;;
59599;SDS011;61855;55.030;73.326;2022-07-23T04:21:04;5.03;;;3.20;;
59599;SDS011;61855;55.030;73.326;2022-07-23T04:23:36;6.00;;;3.20;;
59599;SDS011;61855;55.030;73.326;2022-07-23T04:26:02;5.72;;;2.40;;
59599;SDS011;61855;55.030;73.326;2022-07-23T04:28:30;4.18;;;3.00;;
59599;SDS011;61855;55.030;73.326;2022-07-23T04:30:56;5.60;;;2.70;;
59599;SDS011;61855;55.030;73.326;2022-07-23T04:33:23;3.88;;;2.50;;
59599;SDS011;61855;55.030;73.326;2022-07-23T04:36:03;5.13;;;2.72;;
59599;SDS011;61855;55.030;73.326;2022-07-23T04:38:29;4.50;;;3.00;;
59599;SDS011;61855;55.030;73.326;2022-07-23T04:40:59;4.95;;;2.75;;
59599;SDS011;61855;55.030;73.326;2022-07-23T04:43:27;4.32;;;3.10;;
59599;SDS011;61855;55.030;73.326;2022-07-23T04:45:54;5.03;;;3.00;;
59599;SDS011;61855;55.030;73.326;2022-07-23T04:48:20;3.78;;;2.40;;
59599;SDS011;61855;55.030;73.326;2022-07-23T04:50:51;3.63;;;2.60;;
59599;SDS011;61855;55.030;73.326;2022-07-23T04:53:21;3.78;;;2.78;;
59599;SDS011;61855;55.030;73.326;2022-07-23T04:55:50;7.40;;;3.22;;
59599;SDS011;61855;55.030;73.326;2022-07-23T04:58:16;4.80;;;2.50;;
59599;SDS011;61855;55.030;73.326;2022-07-23T05:00:42;3.42;;;2.67;;
59599;SDS011;61855;55.030;73.326;2022-07-23T05:03:09;3.78;;;2.60;;
59599;SDS011;61855;55.030;73.326;2022-07-23T05:05:36;3.58;;;2.88;;
59599;SDS011;61855;55.030;73.326;2022-07-23T05:08:11;7.45;;;2.80;;
59599;SDS011;61855;55.030;73.326;2022-07-23T05:10:38;6.10;;;2.83;;
59599;SDS011;61855;55.030;73.326;2022-07-23T05:13:05;4.65;;;2.83;;
59599;SDS011;61855;55.030;73.326;2022-07-23T05:15:31;4.53;;;3.00;;
59599;SDS011;61855;55.030;73.326;2022-07-23T05:17:57;3.55;;;2.70;;
59599;SDS011;61855;55.030;73.326;2022-07-23T05:20:23;3.58;;;2.75;;
59599;SDS011;61855;55.030;73.326;2022-07-23T05:22:55;3.38;;;2.67;;
59599;SDS011;61855;55.030;73.326;2022-07-23T05:25:22;5.05;;;2.40;;
59599;SDS011;61855;55.030;73.326;2022-07-23T05:27:58;4.55;;;2.90;;
59599;SDS011;61855;55.030;73.326;2022-07-23T05:30:24;5.05;;;3.28;;
59599;SDS011;61855;55.030;73.326;2022-07-23T05:32:55;3.30;;;2.70;;
59599;SDS011;61855;55.030;73.326;2022-07-23T05:35:26;4.55;;;3.00;;
59599;SDS011;61855;55.030;73.326;2022-07-23T05:38:15;4.50;;;3.45;;
59599;SDS011;61855;55.030;73.326;2022-07-23T05:40:43;3.50;;;2.97;;
59599;SDS011;61855;55.030;73.326;2022-07-23T05:43:09;4.20;;;3.40;;
59599;SDS011;61855;55.030;73.326;2022-07-23T05:45:45;3.90;;;2.80;;
59599;SDS011;61855;55.030;73.326;2022-07-23T05:48:11;7.38;;;3.38;;
59599;SDS011;61855;55.030;73.326;2022-07-23T05:50:47;4.50;;;2.97;;
59599;SDS011;61855;55.030;73.326;2022-07-23T05:53:26;4.68;;;3.03;;
59599;SDS011;61855;55.030;73.326;2022-07-23T05:56:01;3.42;;;2.90;;
59599;SDS011;61855;55.030;73.326;2022-07-23T05:58:30;4.85;;;3.53;;
59599;SDS011;61855;55.030;73.326;2022-07-23T06:00:56;5.35;;;3.28;;
59599;SDS011;61855;55.030;73.326;2022-07-23T06:03:28;4.28;;;2.97;;
59599;SDS011;61855;55.030;73.326;2022-07-23T06:05:54;3.90;;;2.97;;
59599;SDS011;61855;55.030;73.326;2022-07-23T06:08:30;6.57;;;2.90;;
59599;SDS011;61855;55.030;73.326;2022-07-23T06:10:56;4.43;;;2.90;;
59599;SDS011;61855;55.030;73.326;2022-07-23T06:13:22;5.10;;;3.10;;
59599;SDS011;61855;55.030;73.326;2022-07-23T06:15:49;3.13;;;2.65;;
59599;SDS011;61855;55.030;73.326;2022-07-23T06:18:15;4.65;;;2.72;;
59599;SDS011;61855;55.030;73.326;2022-07-23T06:20:41;5.78;;;3.10;;
59599;SDS011;61855;55.030;73.326;2022-07-23T06:23:07;5.38;;;3.30;;
59599;SDS011;61855;55.030;73.326;2022-07-23T06:25:34;5.40;;;3.30;;
59599;SDS011;61855;55.030;73.326;2022-07-23T06:28:00;5.18;;;3.22;;
59599;SDS011;61855;55.030;73.326;2022-07-23T06:30:26;5.30;;;3.35;;
59599;SDS011;61855;55.030;73.326;2022-07-23T06:32:55;4.93;;;3.40;;
59599;SDS011;61855;55.030;73.326;2022-07-23T06:35:21;14.85;;;3.63;;
59599;SDS011;61855;55.030;73.326;2022-07-23T06:37:47;6.20;;;3.40;;
59599;SDS011;61855;55.030;73.326;2022-07-23T06:40:13;8.15;;;3.30;;
59599;SDS011;61855;55.030;73.326;2022-07-23T06:42:40;3.20;;;2.78;;
59599;SDS011;61855;55.030;73.326;2022-07-23T06:45:06;4.45;;;3.10;;
59599;SDS011;61855;55.030;73.326;2022-07-23T06:47:35;3.55;;;2.85;;
59599;SDS011;61855;55.030;73.326;2022-07-23T06:50:01;4.20;;;3.10;;
59599;SDS011;61855;55.030;73.326;2022-07-23T06:52:27;3.53;;;3.00;;
59599;SDS011;61855;55.030;73.326;2022-07-23T06:54:53;4.90;;;2.83;;
59599;SDS011;61855;55.030;73.326;2022-07-23T06:57:19;5.63;;;3.15;;
59599;SDS011;61855;55.030;73.326;2022-07-23T06:59:45;4.40;;;2.90;;
59599;SDS011;61855;55.030;73.326;2022-07-23T07:02:11;4.15;;;3.03;;
59599;SDS011;61855;55.030;73.326;2022-07-23T07:04:38;4.65;;;3.10;;
59599;SDS011;61855;55.030;73.326;2022-07-23T07:07:04;3.42;;;2.75;;
59599;SDS011;61855;55.030;73.326;2022-07-23T07:09:29;4.20;;;2.78;;
59599;SDS011;61855;55.030;73.326;2022-07-23T07:11:56;5.40;;;2.80;;
59599;SDS011;61855;55.030;73.326;2022-07-23T07:14:22;3.38;;;2.88;;
59599;SDS011;61855;55.030;73.326;2022-07-23T07:16:48;3.60;;;2.88;;
59599;SDS011;61855;55.030;73.326;2022-07-23T07:19:14;4.40;;;2.88;;
59599;SDS011;61855;55.030;73.326;2022-07-23T07:21:40;6.18;;;3.30;;
59599;SDS011;61855;55.030;73.326;2022-07-23T07:24:06;6.28;;;3.38;;
59599;SDS011;61855;55.030;73.326;2022-07-23T07:26:33;10.02;;;3.80;;
59599;SDS011;61855;55.030;73.326;2022-07-23T07:29:10;6.93;;;3.78;;
59599;SDS011;61855;55.030;73.326;2022-07-23T07:31:36;3.50;;;3.20;;
59599;SDS011;61855;55.030;73.326;2022-07-23T07:34:02;5.80;;;3.70;;
59599;SDS011;61855;55.030;73.326;2022-07-23T07:36:28;4.38;;;3.13;;
59599;SDS011;61855;55.030;73.326;2022-07-23T07:38:55;6.65;;;3.65;;
59599;SDS011;61855;55.030;73.326;2022-07-23T07:41:21;3.63;;;3.20;;
59599;SDS011;61855;55.030;73.326;2022-07-23T07:43:51;3.97;;;3.15;;
59599;SDS011;61855;55.030;73.326;2022-07-23T07:46:22;5.43;;;3.33;;
59599;SDS011;61855;55.030;73.326;2022-07-23T07:48:55;5.65;;;3.72;;
59599;SDS011;61855;55.030;73.326;2022-07-23T07:51:31;5.90;;;3.55;;
59599;SDS011;61855;55.030;73.326;2022-07-23T07:53:58;7.00;;;3.95;;
59599;SDS011;61855;55.030;73.326;2022-07-23T07:56:25;6.65;;;3.45;;
59599;SDS011;61855;55.030;73.326;2022-07-23T07:58:51;9.80;;;3.78;;
59599;SDS011;61855;55.030;73.326;2022-07-23T08:01:17;9.13;;;4.57;;
59599;SDS011;61855;55.030;73.326;2022-07-23T08:03:44;6.00;;;3.60;;
59599;SDS011;61855;55.030;73.326;2022-07-23T08:06:11;14.57;;;4.25;;
59599;SDS011;61855;55.030;73.326;2022-07-23T08:08:37;6.55;;;3.30;;
59599;SDS011;61855;55.030;73.326;2022-07-23T08:11:03;6.72;;;3.63;;
59599;SDS011;61855;55.030;73.326;2022-07-23T08:13:29;10.27;;;3.95;;
59599;SDS011;61855;55.030;73.326;2022-07-23T08:15:55;16.40;;;4.32;;
59599;SDS011;61855;55.030;73.326;2022-07-23T08:18:22;15.40;;;5.07;;
59599;SDS011;61855;55.030;73.326;2022-07-23T08:20:48;8.75;;;4.00;;
59599;SDS011;61855;55.030;73.326;2022-07-23T08:23:14;11.48;;;4.40;;
59599;SDS011;61855;55.030;73.326;2022-07-23T08:25:44;21.58;;;4.47;;
59599;SDS011;61855;55.030;73.326;2022-07-23T08:28:11;12.25;;;4.93;;
59599;SDS011;61855;55.030;73.326;2022-07-23T08:30:40;7.00;;;4.10;;
59599;SDS011;61855;55.030;73.326;2022-07-23T08:33:13;8.63;;;3.97;;
59599;SDS011;61855;55.030;73.326;2022-07-23T08:35:45;6.55;;;4.05;;
59599;SDS011;61855;55.030;73.326;2022-07-23T08:38:25;7.95;;;4.07;;
59599;SDS011;61855;55.030;73.326;2022-07-23T08:40:54;8.23;;;3.30;;
59599;SDS011;61855;55.030;73.326;2022-07-23T08:43:23;6.97;;;3.35;;
59599;SDS011;61855;55.030;73.326;2022-07-23T08:45:52;5.60;;;3.15;;
59599;SDS011;61855;55.030;73.326;2022-07-23T08:48:23;8.68;;;3.97;;
59599;SDS011;61855;55.030;73.326;2022-07-23T08:50:55;7.65;;;3.35;;
59599;SDS011;61855;55.030;73.326;2022-07-23T08:53:22;8.07;;;3.47;;
59599;SDS011;61855;55.030;73.326;2022-07-23T08:55:56;12.15;;;4.07;;
59599;SDS011;61855;55.030;73.326;2022-07-23T08:58:25;14.95;;;4.05;;
59599;SDS011;61855;55.030;73.326;2022-07-23T09:00:51;9.82;;;3.95;;
59599;SDS011;61855;55.030;73.326;2022-07-23T09:03:20;9.32;;;3.70;;
59599;SDS011;61855;55.030;73.326;2022-07-23T09:05:49;8.85;;;4.32;;
59599;SDS011;61855;55.030;73.326;2022-07-23T09:08:16;12.23;;;4.53;;
59599;SDS011;61855;55.030;73.326;2022-07-23T09:10:55;7.80;;;4.20;;
59599;SDS011;61855;55.030;73.326;2022-07-23T09:13:24;8.10;;;3.10;;
59599;SDS011;61855;55.030;73.326;2022-07-23T09:16:07;6.07;;;3.10;;
59599;SDS011;61855;55.030;73.326;2022-07-23T09:23:39;8.27;;;3.58;;
59599;SDS011;61855;55.030;73.326;2022-07-23T09:29:16;5.80;;;3.58;;
59599;SDS011;61855;55.030;73.326;2022-07-23T09:31:50;16.92;;;6.45;;
59599;SDS011;61855;55.030;73.326;2022-07-23T09:36:48;6.47;;;3.75;;
59599;SDS011;61855;55.030;73.326;2022-07-23T09:39:16;3.83;;;3.35;;
59599;SDS011;61855;55.030;73.326;2022-07-23T09:41:54;4.57;;;3.50;;
59599;SDS011;61855;55.030;73.326;2022-07-23T09:44:20;4.07;;;3.13;;
59599;SDS011;61855;55.030;73.326;2022-07-23T09:46:48;11.82;;;4.25;;
59599;SDS011;61855;55.030;73.326;2022-07-23T09:49:20;4.85;;;3.25;;
59599;SDS011;61855;55.030;73.326;2022-07-23T09:54:22;9.80;;;3.28;;
59599;SDS011;61855;55.030;73.326;2022-07-23T09:56:55;4.47;;;3.22;;
59599;SDS011;61855;55.030;73.326;2022-07-23T09:59:28;5.70;;;3.10;;
59599;SDS011;61855;55.030;73.326;2022-07-23T10:01:57;8.60;;;3.50;;
59599;SDS011;61855;55.030;73.326;2022-07-23T10:04:26;3.45;;;2.38;;
59599;SDS011;61855;55.030;73.326;2022-07-23T10:07:31;3.65;;;2.47;;
59599;SDS011;61855;55.030;73.326;2022-07-23T10:10:18;3.55;;;2.80;;
59599;SDS011;61855;55.030;73.326;2022-07-23T10:12:56;3.53;;;2.97;;
59599;SDS011;61855;55.030;73.326;2022-07-23T10:15:41;5.43;;;2.60;;
59599;SDS011;61855;55.030;73.326;2022-07-23T10:18:08;5.68;;;3.90;;
59599;SDS011;61855;55.030;73.326;2022-07-23T10:20:36;5.60;;;2.58;;
59599;SDS011;61855;55.030;73.326;2022-07-23T10:23:23;2.55;;;2.30;;
59599;SDS011;61855;55.030;73.326;2022-07-23T10:25:59;4.35;;;2.75;;
59599;SDS011;61855;55.030;73.326;2022-07-23T10:31:31;5.25;;;3.00;;
59599;SDS011;61855;55.030;73.326;2022-07-23T10:37:13;4.93;;;3.30;;
59599;SDS011;61855;55.030;73.326;2022-07-23T10:42:37;2.78;;;2.28;;
59599;SDS011;61855;55.030;73.326;2022-07-23T10:47:53;12.63;;;8.32;;
59599;SDS011;61855;55.030;73.326;2022-07-23T10:50:30;11.15;;;6.15;;
59599;SDS011;61855;55.030;73.326;2022-07-23T10:55:42;10.60;;;5.53;;
59599;SDS011;61855;55.030;73.326;2022-07-23T11:01:31;4.95;;;3.63;;
59599;SDS011;61855;55.030;73.326;2022-07-23T11:03:59;4.72;;;2.58;;
59599;SDS011;61855;55.030;73.326;2022-07-23T11:09:25;4.80;;;2.55;;
59599;SDS011;61855;55.030;73.326;2022-07-23T11:12:37;9.38;;;3.00;;
59599;SDS011;61855;55.030;73.326;2022-07-23T11:17:35;8.65;;;3.00;;
59599;SDS011;61855;55.030;73.326;2022-07-23T11:20:21;3.38;;;2.63;;
59599;SDS011;61855;55.030;73.326;2022-07-23T11:22:49;20.50;;;6.05;;
59599;SDS011;61855;55.030;73.326;2022-07-23T11:27:48;25.17;;;13.25;;
59599;SDS011;61855;55.030;73.326;2022-07-23T11:35:34;5.30;;;2.72;;
59599;SDS011;61855;55.030;73.326;2022-07-23T11:38:06;2.55;;;1.55;;
59599;SDS011;61855;55.030;73.326;2022-07-23T11:40:38;6.05;;;1.88;;
59599;SDS011;61855;55.030;73.326;2022-07-23T11:43:11;5.90;;;2.58;;
59599;SDS011;61855;55.030;73.326;2022-07-23T11:45:40;4.18;;;2.20;;
59599;SDS011;61855;55.030;73.326;2022-07-23T11:48:09;10.70;;;4.28;;
59599;SDS011;61855;55.030;73.326;2022-07-23T11:50:41;4.65;;;2.75;;
59599;SDS011;61855;55.030;73.326;2022-07-23T11:53:08;4.78;;;2.45;;
59599;SDS011;61855;55.030;73.326;2022-07-23T11:55:34;6.97;;;3.25;;
59599;SDS011;61855;55.030;73.326;2022-07-23T11:58:00;5.70;;;3.83;;
59599;SDS011;61855;55.030;73.326;2022-07-23T12:00:28;7.00;;;5.38;;
59599;SDS011;61855;55.030;73.326;2022-07-23T12:02:56;8.75;;;5.82;;
59599;SDS011;61855;55.030;73.326;2022-07-23T12:05:26;13.85;;;7.65;;
59599;SDS011;61855;55.030;73.326;2022-07-23T12:07:54;10.93;;;6.28;;
59599;SDS011;61855;55.030;73.326;2022-07-23T12:12:54;8.68;;;5.97;;
59599;SDS011;61855;55.030;73.326;2022-07-23T12:15:23;5.68;;;3.33;;
59599;SDS011;61855;55.030;73.326;2022-07-23T12:17:56;12.48;;;6.65;;
59599;SDS011;61855;55.030;73.326;2022-07-23T12:20:24;5.88;;;2.13;;
59599;SDS011;61855;55.030;73.326;2022-07-23T12:22:53;4.80;;;2.58;;
59599;SDS011;61855;55.030;73.326;2022-07-23T12:25:26;5.60;;;2.65;;
59599;SDS011;61855;55.030;73.326;2022-07-23T12:33:02;6.93;;;4.75;;
59599;SDS011;61855;55.030;73.326;2022-07-23T12:35:30;5.32;;;3.85;;
59599;SDS011;61855;55.030;73.326;2022-07-23T12:38:03;5.95;;;3.22;;
59599;SDS011;61855;55.030;73.326;2022-07-23T12:40:35;10.25;;;7.90;;
59599;SDS011;61855;55.030;73.326;2022-07-23T12:43:10;3.67;;;2.45;;
59599;SDS011;61855;55.030;73.326;2022-07-23T12:50:59;5.03;;;3.10;;
59599;SDS011;61855;55.030;73.326;2022-07-23T12:53:31;5.95;;;4.35;;
59599;SDS011;61855;55.030;73.326;2022-07-23T12:56:06;9.90;;;2.53;;
59599;SDS011;61855;55.030;73.326;2022-07-23T12:58:41;5.20;;;2.40;;
59599;SDS011;61855;55.030;73.326;2022-07-23T13:01:08;4.25;;;2.65;;
59599;SDS011;61855;55.030;73.326;2022-07-23T13:03:36;8.88;;;3.63;;
59599;SDS011;61855;55.030;73.326;2022-07-23T13:06:06;20.25;;;4.30;;
59599;SDS011;61855;55.030;73.326;2022-07-23T13:08:34;3.60;;;2.10;;
59599;SDS011;61855;55.030;73.326;2022-07-23T13:11:01;4.57;;;2.92;;
59599;SDS011;61855;55.030;73.326;2022-07-23T13:13:30;3.47;;;2.80;;
59599;SDS011;61855;55.030;73.326;2022-07-23T13:16:08;7.22;;;2.80;;
59599;SDS011;61855;55.030;73.326;2022-07-23T13:18:34;6.80;;;3.53;;
59599;SDS011;61855;55.030;73.326;2022-07-23T13:21:00;3.30;;;2.63;;
59599;SDS011;61855;55.030;73.326;2022-07-23T13:23:27;3.78;;;2.50;;
59599;SDS011;61855;55.030;73.326;2022-07-23T13:25:53;5.30;;;3.13;;
59599;SDS011;61855;55.030;73.326;2022-07-23T13:28:24;4.80;;;3.22;;
59599;SDS011;61855;55.030;73.326;2022-07-23T13:30:50;6.25;;;2.92;;
59599;SDS011;61855;55.030;73.326;2022-07-23T13:33:18;4.63;;;2.92;;
59599;SDS011;61855;55.030;73.326;2022-07-23T13:35:45;6.82;;;2.60;;
59599;SDS011;61855;55.030;73.326;2022-07-23T13:38:14;5.47;;;3.08;;
59599;SDS011;61855;55.030;73.326;2022-07-23T13:40:41;4.05;;;2.63;;
59599;SDS011;61855;55.030;73.326;2022-07-23T13:43:10;2.80;;;2.22;;
59599;SDS011;61855;55.030;73.326;2022-07-23T13:45:38;6.00;;;2.50;;
59599;SDS011;61855;55.030;73.326;2022-07-23T13:48:05;5.72;;;2.40;;
59599;SDS011;61855;55.030;73.326;2022-07-23T13:50:33;3.47;;;2.22;;
59599;SDS011;61855;55.030;73.326;2022-07-23T13:53:03;4.68;;;3.00;;
59599;SDS011;61855;55.030;73.326;2022-07-23T13:55:33;4.77;;;2.87;;
59599;SDS011;61855;55.030;73.326;2022-07-23T13:58:02;4.18;;;2.53;;
59599;SDS011;61855;55.030;73.326;2022-07-23T14:00:29;4.70;;;2.72;;
59599;SDS011;61855;55.030;73.326;2022-07-23T14:02:57;7.45;;;2.67;;
59599;SDS011;61855;55.030;73.326;2022-07-23T14:05:23;6.80;;;2.42;;
59599;SDS011;61855;55.030;73.326;2022-07-23T14:07:50;5.25;;;2.67;;
59599;SDS011;61855;55.030;73.326;2022-07-23T14:10:18;8.55;;;2.70;;
59599;SDS011;61855;55.030;73.326;2022-07-23T14:12:45;5.47;;;2.80;;
59599;SDS011;61855;55.030;73.326;2022-07-23T14:15:13;4.00;;;2.80;;
59599;SDS011;61855;55.030;73.326;2022-07-23T14:17:40;5.03;;;2.90;;
59599;SDS011;61855;55.030;73.326;2022-07-23T14:20:08;9.38;;;4.38;;
59599;SDS011;61855;55.030;73.326;2022-07-23T14:22:37;5.10;;;2.63;;
59599;SDS011;61855;55.030;73.326;2022-07-23T14:25:04;6.22;;;3.10;;
59599;SDS011;61855;55.030;73.326;2022-07-23T14:27:32;2.53;;;2.33;;
59599;SDS011;61855;55.030;73.326;2022-07-23T14:30:00;6.30;;;2.90;;
59599;SDS011;61855;55.030;73.326;2022-07-23T14:32:26;4.82;;;2.78;;
59599;SDS011;61855;55.030;73.326;2022-07-23T14:34:52;7.45;;;2.55;;
59599;SDS011;61855;55.030;73.326;2022-07-23T14:37:18;5.95;;;3.25;;
59599;SDS011;61855;55.030;73.326;2022-07-23T14:39:45;14.90;;;8.90;;
59599;SDS011;61855;55.030;73.326;2022-07-23T14:42:11;3.88;;;3.35;;
59599;SDS011;61855;55.030;73.326;2022-07-23T14:44:38;7.25;;;2.65;;
59599;SDS011;61855;55.030;73.326;2022-07-23T14:47:04;9.02;;;5.43;;
59599;SDS011;61855;55.030;73.326;2022-07-23T14:49:31;6.25;;;2.95;;
59599;SDS011;61855;55.030;73.326;2022-07-23T14:51:58;5.60;;;2.63;;
59599;SDS011;61855;55.030;73.326;2022-07-23T14:54:35;6.35;;;2.60;;
59599;SDS011;61855;55.030;73.326;2022-07-23T14:57:01;9.10;;;2.90;;
59599;SDS011;61855;55.030;73.326;2022-07-23T14:59:28;6.88;;;3.03;;
59599;SDS011;61855;55.030;73.326;2022-07-23T15:01:56;5.85;;;2.65;;
59599;SDS011;61855;55.030;73.326;2022-07-23T15:04:22;6.32;;;3.10;;
59599;SDS011;61855;55.030;73.326;2022-07-23T15:06:48;12.50;;;6.85;;
59599;SDS011;61855;55.030;73.326;2022-07-23T15:09:15;5.07;;;3.00;;
59599;SDS011;61855;55.030;73.326;2022-07-23T15:11:41;9.57;;;2.63;;
59599;SDS011;61855;55.030;73.326;2022-07-23T15:14:07;6.93;;;2.80;;
59599;SDS011;61855;55.030;73.326;2022-07-23T15:16:34;7.82;;;3.00;;
59599;SDS011;61855;55.030;73.326;2022-07-23T15:19:01;10.10;;;2.95;;
59599;SDS011;61855;55.030;73.326;2022-07-23T15:21:28;6.40;;;2.92;;
59599;SDS011;61855;55.030;73.326;2022-07-23T15:23:55;5.13;;;3.30;;
59599;SDS011;61855;55.030;73.326;2022-07-23T15:26:27;7.97;;;3.53;;
59599;SDS011;61855;55.030;73.326;2022-07-23T15:28:53;9.90;;;3.25;;
59599;SDS011;61855;55.030;73.326;2022-07-23T15:31:20;4.43;;;2.50;;
59599;SDS011;61855;55.030;73.326;2022-07-23T15:33:47;4.35;;;2.30;;
59599;SDS011;61855;55.030;73.326;2022-07-23T15:36:13;3.92;;;2.78;;
59599;SDS011;61855;55.030;73.326;2022-07-23T15:38:40;6.82;;;2.30;;
59599;SDS011;61855;55.030;73.326;2022-07-23T15:41:07;9.38;;;2.28;;